Warren, Michigan
Current Conditions -  °F | °C
As of 7:53 PM on Saturday 25 Oct 2014 (Local Time) from KDET Reporting Station
Clear Clear  
Wind Chill: 63°   Ceiling: Unl
Heat Index: 63°   Visibility: 10mi
Dew Point: 31°   Wind: 10mph
Humidity: 30%   Direction: 280°W
Pressure: 29.76"   Gusts: 25mph
Location:  42.51°N, 83.03°W
Report Text: KDET 252353Z 28009G22KT 10SM CLR 17/M01 A2976 RMK AO2 SLP079 T01721006 10211 20172 53017
Loading
Personal Weather Stations






























Interactive Weather Map
Tropical Storm Tracking
New forecast layout! Learn more

10-Day Weather Forecast

Advertisements
Track Severe Weather on mobile